BAW2156 TAPA-EGKK
Flight info
| Callsign | BAW2156 |
|---|---|
| Flight time | N/A |
| Altitude | 37000 |
| Route | ANU DCT AMTTO DCT 19N060W 23N055W 27N051W 28N050W 35N045W/M082F390 40N040W 46N030W 4830N02000W DCT BEDRA DCT NASBA DCT GAPLI/N0467F390 DCT SIDDI DCT DAWLY DCT ELRIP DCT OTMET |
| Aircraft | B772/H-SDE1E3FGHIJ3J5J6M1M2P2RWXYZ/LB1D1 |
Departure
| Time | 2026-04-15 22:18 |
|---|---|
| Airport | V. C. Bird International Airport (TAPA) |
Arrival
| Time | N/A |
|---|---|
| Airport | London Gatwick Airport (EGKK) |
| Time | Latitude | Longitude | Altitude | Speed | Heading |
|---|---|---|---|---|---|
| 2026-04-15 21:38 | 17.14171 | -61.78927 | 68 ft | 0 kts | 282° |
| 2026-04-15 22:04 | 17.14170 | -61.78922 | 68 ft | 3 kts | 295° |
| 2026-04-15 22:04 | 17.14177 | -61.78922 | 68 ft | 3 kts | 338° |
| 2026-04-15 22:05 | 17.14167 | -61.78918 | 68 ft | 3 kts | 317° |
| 2026-04-15 22:05 | 17.14155 | -61.78903 | 68 ft | 3 kts | 304° |
| 2026-04-15 22:05 | 17.14144 | -61.78886 | 68 ft | 3 kts | 303° |
| 2026-04-15 22:05 | 17.14133 | -61.78868 | 68 ft | 3 kts | 300° |
| 2026-04-15 22:06 | 17.14123 | -61.78849 | 68 ft | 3 kts | 296° |
| 2026-04-15 22:06 | 17.14115 | -61.78830 | 68 ft | 3 kts | 289° |
| 2026-04-15 22:06 | 17.14109 | -61.78811 | 70 ft | 3 kts | 278° |
| 2026-04-15 22:06 | 17.14108 | -61.78804 | 70 ft | 1 kts | 275° |
| 2026-04-15 22:09 | 17.14109 | -61.78811 | 70 ft | 5 kts | 275° |
| 2026-04-15 22:09 | 17.14098 | -61.78867 | 68 ft | 9 kts | 246° |
| 2026-04-15 22:09 | 17.14082 | -61.78899 | 68 ft | 0 kts | 241° |
| 2026-04-15 22:10 | 17.14081 | -61.78900 | 68 ft | 2 kts | 241° |
| 2026-04-15 22:10 | 17.14062 | -61.78936 | 68 ft | 9 kts | 239° |
| 2026-04-15 22:10 | 17.14022 | -61.79003 | 68 ft | 11 kts | 237° |
| 2026-04-15 22:11 | 17.13980 | -61.79072 | 68 ft | 11 kts | 238° |
| 2026-04-15 22:11 | 17.13919 | -61.79118 | 68 ft | 11 kts | 202° |
| 2026-04-15 22:11 | 17.13861 | -61.79169 | 68 ft | 11 kts | 230° |
| 2026-04-15 22:11 | 17.13818 | -61.79237 | 60 ft | 11 kts | 238° |
| 2026-04-15 22:12 | 17.13779 | -61.79302 | 61 ft | 9 kts | 238° |
| 2026-04-15 22:12 | 17.13747 | -61.79338 | 61 ft | 7 kts | 204° |
| 2026-04-15 22:12 | 17.13704 | -61.79323 | 63 ft | 7 kts | 153° |
| 2026-04-15 22:12 | 17.13659 | -61.79315 | 73 ft | 7 kts | 193° |
| 2026-04-15 22:13 | 17.13626 | -61.79348 | 74 ft | 7 kts | 233° |
| 2026-04-15 22:13 | 17.13601 | -61.79389 | 75 ft | 7 kts | 238° |
| 2026-04-15 22:13 | 17.13576 | -61.79430 | 67 ft | 7 kts | 238° |
| 2026-04-15 22:13 | 17.13548 | -61.79478 | 66 ft | 9 kts | 238° |
| 2026-04-15 22:14 | 17.13511 | -61.79542 | 71 ft | 12 kts | 238° |
| 2026-04-15 22:14 | 17.13464 | -61.79622 | 66 ft | 14 kts | 238° |
| 2026-04-15 22:14 | 17.13412 | -61.79710 | 64 ft | 15 kts | 238° |
| 2026-04-15 22:14 | 17.13354 | -61.79807 | 62 ft | 17 kts | 238° |
| 2026-04-15 22:15 | 17.13288 | -61.79920 | 61 ft | 19 kts | 238° |
| 2026-04-15 22:15 | 17.13220 | -61.80037 | 67 ft | 19 kts | 238° |
| 2026-04-15 22:15 | 17.13152 | -61.80154 | 62 ft | 19 kts | 238° |
| 2026-04-15 22:15 | 17.13083 | -61.80271 | 68 ft | 19 kts | 238° |
| 2026-04-15 22:16 | 17.13015 | -61.80387 | 67 ft | 19 kts | 237° |
| 2026-04-15 22:16 | 17.12933 | -61.80480 | 66 ft | 17 kts | 211° |
| 2026-04-15 22:16 | 17.12863 | -61.80544 | 77 ft | 10 kts | 236° |
| 2026-04-15 22:16 | 17.12862 | -61.80587 | 70 ft | 4 kts | 324° |
| 2026-04-15 22:17 | 17.12891 | -61.80581 | 69 ft | 5 kts | 32° |
| 2026-04-15 22:17 | 17.12916 | -61.80554 | 68 ft | 7 kts | 56° |
| 2026-04-15 22:17 | 17.12964 | -61.80473 | 69 ft | 31 kts | 58° |
| 2026-04-15 22:17 | 17.13207 | -61.80059 | 63 ft | 102 kts | 58° |
| 2026-04-15 22:18 | 17.13684 | -61.79234 | 67 ft | 162 kts | 60° |
| 2026-04-15 22:18 | 17.14277 | -61.78172 | 577 ft | 171 kts | 60° |
| 2026-04-15 22:18 | 17.14910 | -61.77074 | 1186 ft | 184 kts | 59° |
| 2026-04-15 22:18 | 17.15649 | -61.75935 | 1687 ft | 192 kts | 56° |
| 2026-04-15 22:19 | 17.16397 | -61.74770 | 2188 ft | 193 kts | 58° |
| 2026-04-15 22:19 | 17.17210 | -61.73555 | 2318 ft | 213 kts | 56° |
| 2026-04-15 22:19 | 17.18127 | -61.72287 | 2676 ft | 224 kts | 49° |
| 2026-04-15 22:19 | 17.19317 | -61.71144 | 2955 ft | 239 kts | 42° |
| 2026-04-15 22:20 | 17.20627 | -61.70032 | 3443 ft | 246 kts | 41° |
| 2026-04-15 22:20 | 17.21982 | -61.68899 | 3930 ft | 252 kts | 41° |
| 2026-04-15 22:20 | 17.23341 | -61.67757 | 4438 ft | 257 kts | 41° |
| 2026-04-15 22:20 | 17.24727 | -61.66559 | 5056 ft | 259 kts | 42° |
| 2026-04-15 22:21 | 17.26125 | -61.65352 | 5628 ft | 263 kts | 41° |
| 2026-04-15 22:21 | 17.27546 | -61.64124 | 6174 ft | 266 kts | 41° |
| 2026-04-15 22:21 | 17.28983 | -61.62881 | 6711 ft | 270 kts | 41° |
| 2026-04-15 22:21 | 17.30433 | -61.61621 | 7249 ft | 271 kts | 41° |
| 2026-04-15 22:22 | 17.31898 | -61.60339 | 7733 ft | 276 kts | 41° |
| 2026-04-15 22:22 | 17.33374 | -61.59038 | 8256 ft | 278 kts | 41° |
| 2026-04-15 22:22 | 17.34869 | -61.57722 | 8759 ft | 281 kts | 41° |
| 2026-04-15 22:22 | 17.36377 | -61.56396 | 9238 ft | 285 kts | 41° |
| 2026-04-15 22:23 | 17.37901 | -61.55058 | 9709 ft | 288 kts | 41° |
| 2026-04-15 22:23 | 17.39440 | -61.53702 | 10163 ft | 292 kts | 41° |
| 2026-04-15 22:23 | 17.41035 | -61.52295 | 10328 ft | 309 kts | 41° |
| 2026-04-15 22:23 | 17.42734 | -61.50794 | 10482 ft | 328 kts | 40° |
| 2026-04-15 22:24 | 17.44528 | -61.49209 | 10634 ft | 348 kts | 40° |
| 2026-04-15 22:24 | 17.46427 | -61.47530 | 10889 ft | 364 kts | 40° |
| 2026-04-15 22:24 | 17.48366 | -61.45816 | 11386 ft | 374 kts | 40° |
| 2026-04-15 22:24 | 17.50372 | -61.44045 | 12031 ft | 380 kts | 40° |
| 2026-04-15 22:25 | 17.52377 | -61.42265 | 13015 ft | 375 kts | 40° |
| 2026-04-15 22:25 | 17.54369 | -61.40490 | 13880 ft | 377 kts | 40° |
| 2026-04-15 22:25 | 17.56386 | -61.38696 | 14575 ft | 383 kts | 39° |
| 2026-04-15 22:25 | 17.58433 | -61.36880 | 15246 ft | 388 kts | 39° |
| 2026-04-15 22:26 | 17.60509 | -61.35040 | 15934 ft | 393 kts | 39° |
| 2026-04-15 22:26 | 17.62610 | -61.33181 | 16597 ft | 398 kts | 39° |
| 2026-04-15 22:26 | 17.64733 | -61.31301 | 17272 ft | 402 kts | 38° |
| 2026-04-15 22:26 | 17.66882 | -61.29399 | 17923 ft | 406 kts | 38° |
| 2026-04-15 22:27 | 17.69061 | -61.27469 | 18547 ft | 411 kts | 38° |
| 2026-04-15 22:27 | 17.71263 | -61.25519 | 19158 ft | 417 kts | 38° |
| 2026-04-15 22:27 | 17.73484 | -61.23554 | 19774 ft | 422 kts | 38° |
| 2026-04-15 22:27 | 17.75743 | -61.21553 | 20383 ft | 426 kts | 38° |
| 2026-04-15 22:28 | 17.78021 | -61.19533 | 20984 ft | 431 kts | 38° |
| 2026-04-15 22:28 | 17.80322 | -61.17492 | 21616 ft | 434 kts | 38° |
| 2026-04-15 22:28 | 17.82636 | -61.15437 | 22202 ft | 438 kts | 38° |
| 2026-04-15 22:28 | 17.84977 | -61.13358 | 22746 ft | 443 kts | 38° |
| 2026-04-15 22:29 | 17.87345 | -61.11255 | 23272 ft | 448 kts | 38° |
| 2026-04-15 22:29 | 17.89733 | -61.09134 | 23828 ft | 452 kts | 38° |
| 2026-04-15 22:29 | 17.92113 | -61.07019 | 24358 ft | 455 kts | 38° |
| 2026-04-15 22:29 | 17.94540 | -61.04859 | 24888 ft | 459 kts | 38° |
| 2026-04-15 22:30 | 17.96996 | -61.02674 | 25362 ft | 463 kts | 38° |
| 2026-04-15 22:30 | 17.99464 | -61.00478 | 25839 ft | 468 kts | 38° |
| 2026-04-15 22:30 | 18.01907 | -60.98189 | 26290 ft | 472 kts | 41° |
| 2026-04-15 22:30 | 18.04311 | -60.95834 | 26852 ft | 473 kts | 41° |
| 2026-04-15 22:31 | 18.06702 | -60.93446 | 27325 ft | 475 kts | 42° |
| 2026-04-15 22:31 | 18.09109 | -60.91027 | 27666 ft | 481 kts | 42° |
| 2026-04-15 22:31 | 18.11538 | -60.88586 | 28002 ft | 486 kts | 42° |
| 2026-04-15 22:31 | 18.13996 | -60.86125 | 28382 ft | 489 kts | 41° |
| 2026-04-15 22:32 | 18.16443 | -60.83682 | 28762 ft | 492 kts | 41° |
| 2026-04-15 22:32 | 18.18926 | -60.81209 | 29130 ft | 494 kts | 41° |
| 2026-04-15 22:32 | 18.21433 | -60.78715 | 29461 ft | 497 kts | 41° |
| 2026-04-15 22:32 | 18.23957 | -60.76204 | 29782 ft | 500 kts | 41° |
| 2026-04-15 22:33 | 18.26497 | -60.73676 | 30078 ft | 504 kts | 41° |
| 2026-04-15 22:33 | 18.29048 | -60.71134 | 30377 ft | 507 kts | 41° |
| 2026-04-15 22:33 | 18.31615 | -60.68576 | 30663 ft | 509 kts | 41° |
| 2026-04-15 22:33 | 18.34197 | -60.66002 | 30930 ft | 513 kts | 41° |
| 2026-04-15 22:34 | 18.36792 | -60.63415 | 31180 ft | 516 kts | 41° |
| 2026-04-15 22:34 | 18.39410 | -60.60803 | 31411 ft | 519 kts | 41° |
| 2026-04-15 22:34 | 18.42036 | -60.58181 | 31658 ft | 522 kts | 41° |
| 2026-04-15 22:34 | 18.44676 | -60.55544 | 31898 ft | 524 kts | 40° |
| 2026-04-15 22:35 | 18.47326 | -60.52896 | 32117 ft | 526 kts | 40° |
| 2026-04-15 22:35 | 18.49994 | -60.50226 | 32322 ft | 529 kts | 40° |
| 2026-04-15 22:35 | 18.52660 | -60.47556 | 32520 ft | 531 kts | 40° |
| 2026-04-15 22:35 | 18.55348 | -60.44868 | 32704 ft | 533 kts | 40° |
| 2026-04-15 22:36 | 18.58039 | -60.42176 | 32921 ft | 534 kts | 40° |
| 2026-04-15 22:36 | 18.60741 | -60.39471 | 33142 ft | 535 kts | 40° |
| 2026-04-15 22:36 | 18.63403 | -60.36803 | 33392 ft | 535 kts | 40° |
| 2026-04-15 22:36 | 18.66099 | -60.34098 | 33664 ft | 534 kts | 40° |
| 2026-04-15 22:37 | 18.68791 | -60.31398 | 33894 ft | 534 kts | 40° |
| 2026-04-15 22:37 | 18.71489 | -60.28692 | 34137 ft | 534 kts | 40° |
| 2026-04-15 22:37 | 18.74185 | -60.25986 | 34391 ft | 534 kts | 40° |
| 2026-04-15 22:37 | 18.76871 | -60.23287 | 34650 ft | 534 kts | 40° |
| 2026-04-15 22:38 | 18.79561 | -60.20582 | 34912 ft | 533 kts | 40° |
| 2026-04-15 22:38 | 18.82247 | -60.17882 | 35192 ft | 532 kts | 40° |
| 2026-04-15 22:38 | 18.84924 | -60.15189 | 35428 ft | 532 kts | 40° |
| 2026-04-15 22:38 | 18.87605 | -60.12493 | 35638 ft | 533 kts | 40° |
| 2026-04-15 22:39 | 18.90296 | -60.09785 | 35849 ft | 533 kts | 40° |
| 2026-04-15 22:39 | 18.92977 | -60.07083 | 36081 ft | 533 kts | 40° |
| 2026-04-15 22:39 | 18.95625 | -60.04413 | 36325 ft | 532 kts | 40° |
| 2026-04-15 22:39 | 18.98311 | -60.01705 | 36479 ft | 534 kts | 40° |
| 2026-04-15 22:40 | 19.00954 | -59.98937 | 36685 ft | 535 kts | 44° |
| 2026-04-15 22:40 | 19.03450 | -59.96029 | 36917 ft | 535 kts | 45° |
| 2026-04-15 22:40 | 19.05913 | -59.93071 | 36959 ft | 536 kts | 46° |
| 2026-04-15 22:41 | 19.13291 | -59.84113 | 36992 ft | 541 kts | 46° |
| 2026-04-15 22:41 | 19.18254 | -59.78115 | 36992 ft | 541 kts | 45° |
| 2026-04-15 22:42 | 19.23231 | -59.72128 | 36980 ft | 542 kts | 45° |
| 2026-04-15 22:42 | 19.28222 | -59.66132 | 36968 ft | 541 kts | 46° |
| 2026-04-15 22:43 | 19.33157 | -59.60193 | 36972 ft | 540 kts | 45° |
| 2026-04-15 22:43 | 19.38110 | -59.54232 | 36969 ft | 538 kts | 46° |
| 2026-04-15 22:44 | 19.43032 | -59.48285 | 36967 ft | 535 kts | 46° |
| 2026-04-15 22:44 | 19.47935 | -59.42357 | 36974 ft | 534 kts | 46° |
| 2026-04-15 22:45 | 19.52834 | -59.36444 | 36988 ft | 533 kts | 46° |
| 2026-04-15 22:45 | 19.57718 | -59.30530 | 36977 ft | 532 kts | 46° |
| 2026-04-15 22:46 | 19.62593 | -59.24627 | 36983 ft | 532 kts | 46° |
| 2026-04-15 22:46 | 19.67470 | -59.18713 | 36980 ft | 532 kts | 46° |
| 2026-04-15 22:47 | 19.72318 | -59.12832 | 36982 ft | 534 kts | 46° |
| 2026-04-15 22:47 | 19.77213 | -59.06883 | 36982 ft | 534 kts | 46° |
| 2026-04-15 22:48 | 19.82112 | -59.00920 | 36982 ft | 535 kts | 46° |
| 2026-04-15 22:48 | 19.86980 | -58.94992 | 36981 ft | 537 kts | 46° |
| 2026-04-15 22:49 | 19.91890 | -58.89011 | 36981 ft | 538 kts | 46° |
| 2026-04-15 22:49 | 19.96807 | -58.83013 | 36981 ft | 538 kts | 46° |
| 2026-04-15 22:50 | 20.01728 | -58.77005 | 36981 ft | 538 kts | 46° |
| 2026-04-15 22:50 | 20.06602 | -58.71041 | 36984 ft | 535 kts | 46° |
| 2026-04-15 22:51 | 20.11472 | -58.65082 | 36973 ft | 532 kts | 46° |
| 2026-04-15 22:51 | 20.16316 | -58.59142 | 36978 ft | 529 kts | 46° |
| 2026-04-15 22:52 | 20.21136 | -58.53234 | 36975 ft | 529 kts | 46° |
| 2026-04-15 22:52 | 20.25968 | -58.47302 | 36985 ft | 530 kts | 46° |
| 2026-04-15 22:53 | 20.30798 | -58.41367 | 36984 ft | 530 kts | 46° |
| 2026-04-15 22:53 | 20.35630 | -58.35424 | 36983 ft | 531 kts | 46° |
| 2026-04-15 22:54 | 20.40469 | -58.29471 | 36979 ft | 531 kts | 46° |
| 2026-04-15 22:54 | 20.44490 | -58.24515 | 36982 ft | 532 kts | 46° |
| 2026-04-15 22:55 | 20.50116 | -58.17569 | 36983 ft | 532 kts | 46° |
| 2026-04-15 22:55 | 20.54954 | -58.11591 | 36979 ft | 532 kts | 46° |
| 2026-04-15 22:56 | 20.59009 | -58.06581 | 36981 ft | 531 kts | 46° |
| 2026-04-15 22:56 | 20.63800 | -58.00643 | 36990 ft | 530 kts | 46° |
| 2026-04-15 22:57 | 20.68627 | -57.94676 | 36989 ft | 531 kts | 46° |
| 2026-04-15 22:57 | 20.73443 | -57.88698 | 36992 ft | 530 kts | 46° |
| 2026-04-15 22:58 | 20.78253 | -57.82715 | 36992 ft | 530 kts | 46° |
| 2026-04-15 22:58 | 20.83054 | -57.76745 | 36993 ft | 529 kts | 46° |
| 2026-04-15 22:59 | 20.87849 | -57.70789 | 36991 ft | 528 kts | 46° |
| 2026-04-15 22:59 | 20.92604 | -57.64862 | 37011 ft | 526 kts | 46° |
| 2026-04-15 23:00 | 20.97369 | -57.58925 | 37023 ft | 525 kts | 46° |
| 2026-04-15 23:00 | 21.02108 | -57.53006 | 37029 ft | 523 kts | 46° |
| 2026-04-15 23:01 | 21.06824 | -57.47110 | 37027 ft | 521 kts | 46° |
| 2026-04-15 23:01 | 21.11539 | -57.41219 | 37031 ft | 521 kts | 46° |
| 2026-04-15 23:02 | 21.16250 | -57.35323 | 37031 ft | 520 kts | 46° |
| 2026-04-15 23:02 | 21.20947 | -57.29440 | 37025 ft | 520 kts | 46° |
| 2026-04-15 23:03 | 21.25615 | -57.23575 | 37030 ft | 520 kts | 46° |
| 2026-04-15 23:03 | 21.30308 | -57.17679 | 37026 ft | 520 kts | 46° |
| 2026-04-15 23:04 | 21.34999 | -57.11784 | 37028 ft | 519 kts | 46° |
| 2026-04-15 23:04 | 21.39677 | -57.05886 | 37029 ft | 518 kts | 46° |
| 2026-04-15 23:05 | 21.44349 | -56.99992 | 37026 ft | 517 kts | 46° |
| 2026-04-15 23:05 | 21.49012 | -56.94110 | 37033 ft | 518 kts | 46° |
| 2026-04-15 23:06 | 21.53677 | -56.88223 | 37028 ft | 516 kts | 46° |
| 2026-04-15 23:06 | 21.58329 | -56.82345 | 37040 ft | 516 kts | 46° |
| 2026-04-15 23:07 | 21.62971 | -56.76461 | 37039 ft | 515 kts | 46° |
| 2026-04-15 23:07 | 21.67576 | -56.70633 | 37033 ft | 514 kts | 46° |
| 2026-04-15 23:08 | 21.72196 | -56.64769 | 37041 ft | 514 kts | 46° |